Boynton Beach, FL (33437)

5:39 PM EST on February 07, 2016 (GMT -0500)
Pipers Glen Estates | | Change Station
CLOSE
Current Station
Personal Weather Station
Location: Boynton Beach, FL
Elevation: 27 ft
Nearby Weather Stations

Elev 27 ft 26.49 °N, 80.14 °W | Updated 45 seconds ago

Clear
Clear
61.2 °F
Feels Like 61.2 °F
N
5.4
Wind Variable Wind from WNW
Gusts 6.3 mph

Today
High -- | Low -- °F
--% Chance of Precip.
Yesterday
High -- | Low -- °F
Precip. -- in
Pressure 29.99 in
Visibility 10.0 miles
Clouds Few 2700 ft
Dew Point 33 °F
Humidity 34%
Rainfall 0.00 in
Snow Depth Not available.
7:02 AM 6:07 PM
Waning Crescent, 1% visible
METAR KPBI 072153Z 28017G24KT 10SM FEW027 15/02 A2999 RMK AO2 PK WND 27026/2134 SLP154 T01500017
Pressure 29.99 in
Visibility 10.0 miles
Clouds Few 2700 ft
Dew Point 33 °F
Humidity 34%
Rainfall 0.00 in
Snow Depth Not available.
7:02 AM 6:07 PM
Waning Crescent, 1% visible
METAR KPBI 072153Z 28017G24KT 10SM FEW027 15/02 A2999 RMK AO2 PK WND 27026/2134 SLP154 T01500017

10-Day Weather Forecast

Almanac

Astronomy

Feb. 07, 2016 Rise Set
Actual Time
Civil Twilight
Nautical Twilight
Astronomical Twilight
Moon
Length of Visible Light
Length of Day
Tomorrow will be .
, % of the Moon is Illuminated

Today's Extremes

State Highs State Lows

Community

WunderPhotos

Upload Photos

1,891,324 photos uploaded!

WunderBlog® & News

Nearby

Air Quality

  Air Quality AQ Index Pollutant
Not available.

Snow Depth

Station Depth Elevation

Earthquake Activity

City Distance Mag. Time & Date
Minimum magnitude displayed is 2.5.

Coastal Water Temperatures

Place Temperature

Stations

Nearby Weather Stations

Station Location Temp. Windchill Dew Point Humidity Wind Precip. Elev Updated Type
                   

Watches & Warnings

There are currently no watches in effect.